Time;durP1;ratioP1;P1;durP2;ratioP2;P2;SDS_P1;SDS_P2;PMS_P1;PMS_P2;Temp;Humidity;BMP_temperature;BMP_pressure;BME280_temperature;BME280_humidity;BME280_pressure;Samples;Min_cycle;Max_cycle;Signal;HPM_P1;HPM_P2
2023/03/03 00:00:45;;;;;;;25.48;13.70;;;;;;;2.48;100.00;102628.13;4968431;28;20027;-64
2023/03/03 00:03:17;;;;;;;36.90;15.02;;;;;;;2.50;100.00;102634.22;4968733;28;20022;-63
2023/03/03 00:05:42;;;;;;;32.17;14.82;;;;;;;2.46;100.00;102640.19;4951536;28;20027;-62
2023/03/03 00:08:09;;;;;;;27.17;14.38;;;;;;;2.52;100.00;102636.88;4968063;28;20019;-61
2023/03/03 00:10:34;;;;;;;36.83;14.63;;;;;;;2.45;100.00;102641.03;4968728;28;20035;-63
2023/03/03 00:13:00;;;;;;;33.03;14.68;;;;;;;2.47;100.00;102639.34;4967553;28;20034;-64
2023/03/03 00:15:27;;;;;;;31.70;14.52;;;;;;;2.52;100.00;102640.38;4967341;28;20047;-64
2023/03/03 00:17:53;;;;;;;32.63;15.27;;;;;;;2.55;100.00;102642.16;4968400;28;20034;-64
2023/03/03 00:20:38;;;;;;;35.85;15.65;;;;;;;2.52;100.00;102640.38;4967564;28;20031;-64
2023/03/03 00:23:19;;;;;;;35.00;15.98;;;;;;;2.39;100.00;102648.66;4968094;28;20046;-64
2023/03/03 00:25:45;;;;;;;42.15;16.92;;;;;;;2.46;100.00;102653.19;4968630;28;20027;-63
2023/03/03 00:28:42;;;;;;;37.78;16.40;;;;;;;2.42;100.00;102653.94;5019726;28;20054;-63
2023/03/03 00:31:14;;;;;;;33.53;15.77;;;;;;;2.46;100.00;102653.19;5051033;28;20040;-64
2023/03/03 00:33:49;;;;;;;27.15;14.65;;;;;;;2.50;100.00;102648.97;5011964;28;20031;-63
2023/03/03 00:36:15;;;;;;;31.00;15.93;;;;;;;2.50;100.00;102644.63;4949931;28;20031;-63
2023/03/03 00:38:41;;;;;;;41.97;16.63;;;;;;;2.43;100.00;102650.50;4964917;28;20101;-64
2023/03/03 00:41:18;;;;;;;37.35;15.85;;;;;;;2.50;100.00;102648.97;4948715;28;20059;-64
2023/03/03 00:43:44;;;;;;;34.65;17.45;;;;;;;2.63;100.00;102645.88;5038925;28;20360;-62
2023/03/03 00:46:09;;;;;;;36.55;16.13;;;;;;;2.51;100.00;102649.03;5068772;28;20027;-63
2023/03/03 00:48:34;;;;;;;34.80;16.35;;;;;;;2.62;100.00;102644.09;5008863;28;20511;-62
2023/03/03 00:51:01;;;;;;;34.65;16.35;;;;;;;2.73;100.00;102648.72;4967420;28;20488;-64
2023/03/03 00:53:28;;;;;;;38.70;17.42;;;;;;;2.64;100.00;102652.84;4967352;28;20027;-62
2023/03/03 00:55:54;;;;;;;37.20;16.38;;;;;;;2.66;100.00;102658.09;4966941;28;20037;-63
2023/03/03 00:58:21;;;;;;;31.98;15.82;;;;;;;2.69;100.00;102650.38;4967081;28;20023;-64
2023/03/03 01:00:48;;;;;;;35.53;15.98;;;;;;;2.80;100.00;102648.06;4967222;28;20029;-64
2023/03/03 01:03:16;;;;;;;36.53;15.73;;;;;;;2.76;100.00;102647.09;4967181;28;20023;-62
2023/03/03 01:05:42;;;;;;;32.38;15.07;;;;;;;2.79;100.00;102651.50;4967816;28;20035;-63
2023/03/03 01:08:07;;;;;;;33.60;14.63;;;;;;;2.81;100.00;102648.94;4966401;28;20389;-63
2023/03/03 01:10:35;;;;;;;33.60;14.95;;;;;;;2.70;100.00;102646.94;4967186;28;20023;-63
2023/03/03 01:13:01;;;;;;;27.13;14.03;;;;;;;2.78;100.00;102649.75;4967505;28;20390;-62
2023/03/03 01:15:27;;;;;;;29.98;14.70;;;;;;;2.81;100.00;102646.34;4967073;28;20325;-62
2023/03/03 01:17:53;;;;;;;37.88;14.32;;;;;;;2.73;100.00;102648.72;4967146;28;20027;-64
2023/03/03 01:20:19;;;;;;;33.25;13.80;;;;;;;2.64;100.00;102649.34;4949949;28;20493;-64
2023/03/03 01:22:44;;;;;;;29.45;13.63;;;;;;;2.60;100.00;102655.31;4966760;28;20031;-63
2023/03/03 01:25:10;;;;;;;30.02;13.25;;;;;;;2.74;100.00;102651.38;4967324;28;20027;-63
2023/03/03 01:27:35;;;;;;;32.22;12.50;;;;;;;2.80;100.00;102652.41;4970071;28;20027;-60
2023/03/03 01:30:02;;;;;;;32.47;13.00;;;;;;;2.72;100.00;102654.78;4985819;28;20027;-66
2023/03/03 01:32:27;;;;;;;36.20;12.55;;;;;;;2.78;100.00;102655.84;4986508;28;20022;-62
2023/03/03 01:34:53;;;;;;;27.45;11.82;;;;;;;2.70;100.00;102646.03;4986731;28;20054;-62
2023/03/03 01:37:19;;;;;;;25.13;10.63;;;;;;;2.80;100.00;102650.66;4986108;28;20022;-63
2023/03/03 01:39:49;;;;;;;26.02;11.63;;;;;;;2.75;100.00;102650.56;4974132;28;20030;-62
2023/03/03 01:42:14;;;;;;;18.88;10.25;;;;;;;2.70;100.00;102651.25;4967032;28;20043;-62
2023/03/03 01:44:40;;;;;;;18.08;9.52;;;;;;;2.71;100.00;102653.88;4949990;28;20030;-64
2023/03/03 01:47:25;;;;;;;17.63;10.23;;;;;;;2.78;100.00;102644.53;4968041;28;20038;-63
2023/03/03 01:49:56;;;;;;;17.42;9.10;;;;;;;2.68;100.00;102648.59;4931034;29;20039;-63
2023/03/03 01:52:30;;;;;;;19.60;9.88;;;;;;;2.74;100.00;102653.13;4929396;28;20023;-66
2023/03/03 01:55:00;;;;;;;19.55;9.55;;;;;;;2.69;100.00;102658.19;4930929;28;20036;-63
2023/03/03 01:57:29;;;;;;;21.88;9.75;;;;;;;2.76;100.00;102657.53;4943080;28;20076;-64
2023/03/03 01:59:56;;;;;;;21.80;8.90;;;;;;;2.75;100.00;102653.16;4949849;28;20391;-62
2023/03/03 02:02:22;;;;;;;22.25;9.38;;;;;;;2.63;100.00;102658.00;4966358;28;20027;-63
2023/03/03 02:04:49;;;;;;;13.95;8.35;;;;;;;2.62;100.00;102654.50;4967148;28;20292;-63
2023/03/03 02:07:14;;;;;;;17.58;8.25;;;;;;;2.75;100.00;102650.56;5046178;23;20546;-65
2023/03/03 02:10:00;;;;;;;18.73;9.27;;;;;;;2.73;100.00;102647.00;4965574;28;20080;-63
2023/03/03 02:12:38;;;;;;;18.35;7.80;;;;;;;2.75;100.00;102653.16;4967021;28;20027;-64
2023/03/03 02:15:26;;;;;;;13.10;7.50;;;;;;;2.71;100.00;102653.03;4968174;28;20034;-63
2023/03/03 02:17:54;;;;;;;11.05;7.82;;;;;;;2.75;100.00;102650.56;4968378;28;20023;-63
2023/03/03 02:20:36;;;;;;;13.35;7.15;;;;;;;2.68;100.00;102642.53;4967923;28;20066;-63
2023/03/03 02:23:01;;;;;;;8.50;6.07;;;;;;;2.76;100.00;102652.31;4967976;28;20051;-64
2023/03/03 02:25:51;;;;;;;13.85;7.05;;;;;;;2.76;100.00;102654.91;4968654;28;20053;-64
2023/03/03 02:28:17;;;;;;;13.80;6.65;;;;;;;2.79;100.00;102654.13;4968063;28;20066;-64
2023/03/03 02:30:42;;;;;;;12.30;6.85;;;;;;;2.81;100.00;102651.56;4968266;28;20061;-65
2023/03/03 02:33:08;;;;;;;11.63;6.50;;;;;;;2.76;100.00;102649.72;4968284;28;20031;-62
2023/03/03 02:35:36;;;;;;;22.17;7.28;;;;;;;2.68;100.00;102648.59;5065520;28;20072;-65
2023/03/03 02:38:14;;;;;;;11.45;6.75;;;;;;;2.62;100.00;102649.31;5068483;28;20021;-64
2023/03/03 02:40:44;;;;;;;12.73;6.40;;;;;;;2.51;100.00;102651.63;5069239;28;20120;-64
2023/03/03 02:43:10;;;;;;;10.02;6.82;;;;;;;2.50;100.00;102649.84;5068393;28;20036;-64
2023/03/03 02:45:42;;;;;;;11.50;7.20;;;;;;;2.44;100.00;102648.78;5067508;28;20029;-63
2023/03/03 02:48:07;;;;;;;13.55;7.38;;;;;;;2.42;100.00;102646.13;5069167;28;20089;-64
2023/03/03 02:50:32;;;;;;;14.07;7.80;;;;;;;2.38;100.00;102644.28;5069224;28;20511;-65
2023/03/03 02:52:58;;;;;;;13.85;7.80;;;;;;;2.55;100.00;102646.47;5068454;28;20648;-64
2023/03/03 02:55:23;;;;;;;12.95;7.47;;;;;;;2.65;100.00;102648.53;5069007;28;20553;-64
2023/03/03 02:57:48;;;;;;;15.20;8.02;;;;;;;2.67;100.00;102639.03;5068786;28;20365;-63
2023/03/03 03:00:14;;;;;;;15.05;8.57;;;;;;;2.75;100.00;102640.16;5068959;28;20028;-63
2023/03/03 03:02:39;;;;;;;21.15;9.70;;;;;;;2.69;100.00;102647.78;5067665;28;20090;-63
2023/03/03 03:05:05;;;;;;;18.15;9.57;;;;;;;2.82;100.00;102653.31;5068936;28;20345;-60
2023/03/03 03:07:30;;;;;;;19.75;9.80;;;;;;;2.93;100.00;102651.00;5067760;28;20076;-65
2023/03/03 03:09:55;;;;;;;19.05;9.93;;;;;;;2.98;100.00;102641.63;5068451;28;20037;-64
2023/03/03 03:12:21;;;;;;;15.20;9.85;;;;;;;3.01;100.00;102644.31;5068629;28;20025;-63
2023/03/03 03:14:46;;;;;;;16.38;9.45;;;;;;;3.07;100.00;102652.25;5069322;28;20036;-64
2023/03/03 03:17:12;;;;;;;18.48;9.80;;;;;;;3.06;100.00;102654.81;5068707;28;20031;-63
2023/03/03 03:19:37;;;;;;;22.58;10.30;;;;;;;3.20;100.00;102648.28;5069033;28;20029;-64
2023/03/03 03:22:03;;;;;;;27.08;12.02;;;;;;;3.03;100.00;102651.31;4986551;28;20061;-63
2023/03/03 03:24:28;;;;;;;22.83;12.20;;;;;;;3.08;100.00;102653.16;4969634;28;20043;-66
2023/03/03 03:26:53;;;;;;;27.05;13.13;;;;;;;2.99;100.00;102653.78;4970066;28;20565;-64
2023/03/03 03:29:19;;;;;;;35.92;13.40;;;;;;;2.86;100.00;102652.59;4969447;28;20023;-64
2023/03/03 03:31:44;;;;;;;28.90;14.50;;;;;;;2.84;100.00;102654.25;4968510;28;20038;-63
2023/03/03 03:34:10;;;;;;;31.58;15.20;;;;;;;2.99;100.00;102656.38;4969392;28;20038;-63
2023/03/03 03:36:38;;;;;;;31.90;15.77;;;;;;;2.83;100.00;102663.78;4969613;28;20030;-63
2023/03/03 03:39:05;;;;;;;30.85;16.48;;;;;;;2.62;100.00;102664.94;4969921;28;20053;-65
2023/03/03 03:41:31;;;;;;;33.38;15.73;;;;;;;2.42;100.00;102672.16;4969263;28;20072;-64
2023/03/03 03:43:56;;;;;;;36.40;16.85;;;;;;;2.38;100.00;102663.38;4969644;28;20379;-65
2023/03/03 03:46:21;;;;;;;35.55;16.92;;;;;;;2.42;100.00;102669.56;4969681;28;20053;-63
2023/03/03 03:48:47;;;;;;;38.22;17.33;;;;;;;2.40;100.00;102673.81;4969519;28;20049;-64
2023/03/03 03:51:12;;;;;;;46.55;19.75;;;;;;;2.35;100.00;102658.06;4969296;28;20054;-64
2023/03/03 03:53:38;;;;;;;51.47;18.45;;;;;;;2.48;100.00;102663.66;4970010;28;20031;-64
2023/03/03 03:56:03;;;;;;;40.92;17.00;;;;;;;2.53;100.00;102659.47;4969988;28;20042;-62
2023/03/03 03:58:28;;;;;;;42.05;16.85;;;;;;;2.64;100.00;102667.56;4970011;28;20024;-64
2023/03/03 04:00:54;;;;;;;43.55;18.90;;;;;;;2.50;100.00;102664.59;5038710;28;20031;-63
2023/03/03 04:03:20;;;;;;;62.03;19.58;;;;;;;2.37;100.00;102665.94;4972255;28;20082;-63
2023/03/03 04:05:45;;;;;;;49.30;18.17;;;;;;;2.44;100.00;102672.22;4969776;28;20113;-64
2023/03/03 04:08:10;;;;;;;42.10;17.92;;;;;;;2.40;100.00;102673.81;4970539;28;20039;-65
2023/03/03 04:10:36;;;;;;;56.70;19.58;;;;;;;2.36;100.00;102666.78;4972477;28;20022;-64
2023/03/03 04:13:01;;;;;;;57.30;20.42;;;;;;;2.30;100.00;102671.78;4971695;28;20094;-63
2023/03/03 04:15:26;;;;;;;49.08;20.80;;;;;;;2.50;100.00;102675.00;4970043;28;20034;-63
2023/03/03 04:17:52;;;;;;;42.08;19.20;;;;;;;2.39;100.00;102677.28;4969779;28;20030;-64
2023/03/03 04:20:17;;;;;;;44.17;19.27;;;;;;;2.44;100.00;102680.00;4969874;28;20117;-64
2023/03/03 04:22:43;;;;;;;60.90;20.25;;;;;;;2.52;100.00;102678.50;4969620;28;20035;-63
2023/03/03 04:25:12;;;;;;;49.30;19.60;;;;;;;2.51;100.00;102676.75;4969114;28;20026;-65
2023/03/03 04:27:37;;;;;;;49.90;21.60;;;;;;;2.37;100.00;102674.63;4968821;28;20038;-60
2023/03/03 04:30:04;;;;;;;45.85;19.98;;;;;;;2.58;100.00;102677.81;4971758;28;20034;-63
2023/03/03 04:32:30;;;;;;;49.67;20.15;;;;;;;2.58;100.00;102683.00;5070428;28;20043;-63
2023/03/03 04:34:55;;;;;;;42.42;19.45;;;;;;;2.80;100.00;102678.44;5069707;28;20520;-64
2023/03/03 04:37:21;;;;;;;51.30;20.77;;;;;;;2.84;100.00;102680.28;5069348;28;20024;-63
2023/03/03 04:39:46;;;;;;;50.42;20.52;;;;;;;2.93;100.00;102680.56;5070746;28;20345;-63
2023/03/03 04:42:12;;;;;;;41.35;18.83;;;;;;;2.86;100.00;102679.47;5070038;28;20024;-64
2023/03/03 04:44:37;;;;;;;43.38;18.75;;;;;;;2.83;100.00;102682.00;5069673;28;20036;-63
2023/03/03 04:47:03;;;;;;;39.65;18.08;;;;;;;2.82;100.00;102677.63;5070617;28;20024;-63
2023/03/03 04:49:28;;;;;;;52.40;19.38;;;;;;;2.82;100.00;102679.34;5070311;28;20532;-63
2023/03/03 04:51:54;;;;;;;45.53;17.17;;;;;;;2.62;100.00;102690.09;5069286;28;20031;-64
2023/03/03 04:54:19;;;;;;;38.65;18.15;;;;;;;2.70;100.00;102688.59;5069944;28;20053;-62
2023/03/03 04:56:44;;;;;;;36.90;17.52;;;;;;;2.74;100.00;102680.00;5070210;28;20583;-64
2023/03/03 04:59:10;;;;;;;47.38;17.27;;;;;;;2.91;100.00;102679.63;5070198;28;20456;-65
2023/03/03 05:01:35;;;;;;;35.67;15.95;;;;;;;2.99;100.00;102685.03;5070443;28;20025;-64
2023/03/03 05:04:01;;;;;;;37.55;16.92;;;;;;;2.87;100.00;102682.97;5070117;28;20468;-63
2023/03/03 05:06:26;;;;;;;35.97;16.30;;;;;;;2.86;100.00;102684.69;5068661;28;20041;-64
2023/03/03 05:08:52;;;;;;;32.63;15.95;;;;;;;2.99;100.00;102692.84;5069670;28;20032;-63
2023/03/03 05:11:17;;;;;;;29.88;15.02;;;;;;;2.78;100.00;102692.31;5069271;28;20052;-63
2023/03/03 05:13:42;;;;;;;31.38;15.85;;;;;;;2.84;100.00;102685.50;5069656;28;20028;-62
2023/03/03 05:16:08;;;;;;;32.03;15.35;;;;;;;3.06;100.00;102680.88;5070015;28;20024;-63
2023/03/03 05:18:33;;;;;;;35.25;16.45;;;;;;;3.06;100.00;102686.97;5064863;28;20059;-63
2023/03/03 05:20:59;;;;;;;34.00;14.30;;;;;;;2.87;100.00;102685.56;4967179;28;20035;-63
2023/03/03 05:23:24;;;;;;;27.75;14.32;;;;;;;3.13;100.00;102686.28;4967996;28;20027;-63
2023/03/03 05:25:52;;;;;;;29.75;14.05;;;;;;;3.00;100.00;102682.47;4967644;28;20043;-65
2023/03/03 05:28:18;;;;;;;34.65;15.50;;;;;;;3.00;100.00;102690.28;4964425;28;20035;-65
2023/03/03 05:30:43;;;;;;;29.67;15.02;;;;;;;3.21;100.00;102689.09;4967763;28;20031;-64
2023/03/03 05:33:12;;;;;;;34.15;14.68;;;;;;;3.24;100.00;102685.69;4967257;28;20023;-64
2023/03/03 05:35:37;;;;;;;29.63;15.27;;;;;;;3.18;100.00;102686.41;4965297;28;20122;-63
2023/03/03 05:38:03;;;;;;;29.10;13.73;;;;;;;3.17;100.00;102689.88;4968226;28;20427;-64
2023/03/03 05:40:28;;;;;;;32.22;14.50;;;;;;;3.27;100.00;102681.47;4967392;28;20078;-62
2023/03/03 05:42:53;;;;;;;31.02;13.57;;;;;;;3.09;100.00;102681.84;4967487;28;20375;-64
2023/03/03 05:45:20;;;;;;;39.15;13.50;;;;;;;3.16;100.00;102682.88;4967373;28;20033;-64
2023/03/03 05:47:46;;;;;;;29.50;14.98;;;;;;;3.28;100.00;102680.59;4967634;28;20049;-62
2023/03/03 05:50:11;;;;;;;28.17;13.43;;;;;;;3.18;100.00;102691.63;4966450;28;20256;-62
2023/03/03 05:52:37;;;;;;;27.50;13.90;;;;;;;3.12;100.00;102686.25;4967499;28;20470;-62
2023/03/03 05:55:02;;;;;;;32.88;15.30;;;;;;;3.12;100.00;102691.47;4967413;28;20030;-62
2023/03/03 05:57:28;;;;;;;31.27;14.75;;;;;;;3.23;100.00;102691.75;4966963;28;20034;-65
2023/03/03 05:59:53;;;;;;;30.42;16.13;;;;;;;3.19;100.00;102687.31;4965301;28;20407;-62
2023/03/03 06:02:19;;;;;;;30.73;15.50;;;;;;;3.20;100.00;102691.66;4966751;28;20027;-64
2023/03/03 06:04:44;;;;;;;35.75;16.40;;;;;;;3.35;100.00;102679.06;4966296;28;20482;-62
2023/03/03 06:07:09;;;;;;;33.17;16.38;;;;;;;3.29;100.00;102690.19;4952355;28;20122;-64
2023/03/03 06:09:35;;;;;;;35.00;17.35;;;;;;;3.37;100.00;102692.13;4966660;28;20050;-62
2023/03/03 06:12:01;;;;;;;38.92;17.48;;;;;;;3.31;100.00;102691.97;4965115;28;20034;-64
2023/03/03 06:14:26;;;;;;;44.08;17.98;;;;;;;3.35;100.00;102699.91;4966129;28;20034;-63
2023/03/03 06:16:51;;;;;;;42.30;18.48;;;;;;;3.29;100.00;102699.75;4966426;28;20027;-63
2023/03/03 06:19:17;;;;;;;43.97;17.83;;;;;;;3.35;100.00;102701.63;4965516;28;20023;-63
2023/03/03 06:21:42;;;;;;;40.38;18.15;;;;;;;3.32;100.00;102698.94;4964111;28;20084;-63
2023/03/03 06:24:08;;;;;;;38.90;17.77;;;;;;;3.25;100.00;102703.97;4966001;28;20050;-63
2023/03/03 06:26:33;;;;;;;46.63;18.13;;;;;;;3.35;100.00;102705.13;4965923;28;20030;-65
2023/03/03 06:28:59;;;;;;;31.00;16.52;;;;;;;3.35;100.00;102705.13;4965892;28;20076;-62
2023/03/03 06:31:25;;;;;;;33.40;15.13;;;;;;;2.94;100.00;102713.56;4966079;28;20084;-60
2023/03/03 06:33:50;;;;;;;31.65;15.13;;;;;;;3.14;100.00;102708.91;4966605;28;20114;-63
2023/03/03 06:36:17;;;;;;;32.15;16.27;;;;;;;2.90;100.00;102706.50;4965182;28;20105;-63
2023/03/03 06:38:42;;;;;;;30.85;15.20;;;;;;;3.06;100.00;102718.22;4966423;28;20023;-63
2023/03/03 06:41:08;;;;;;;28.23;14.75;;;;;;;3.07;100.00;102719.97;4965623;28;20035;-64
2023/03/03 06:43:34;;;;;;;32.63;16.02;;;;;;;3.24;100.00;102720.47;4966518;28;20570;-62
2023/03/03 06:45:59;;;;;;;28.95;14.57;;;;;;;3.27;100.00;102723.16;4966397;28;20110;-64
2023/03/03 06:48:25;;;;;;;31.33;15.13;;;;;;;3.36;100.00;102732.03;4964443;28;20027;-63
2023/03/03 06:50:50;;;;;;;35.10;15.25;;;;;;;3.16;100.00;102725.44;4962505;28;20106;-66
2023/03/03 06:53:17;;;;;;;38.70;16.92;;;;;;;3.12;100.00;102731.44;4962842;28;20023;-65
2023/03/03 06:55:43;;;;;;;31.45;15.02;;;;;;;2.99;100.00;102732.81;4965266;28;20358;-65
2023/03/03 06:58:14;;;;;;;34.05;16.05;;;;;;;3.15;100.00;102733.22;4967096;28;20470;-64
2023/03/03 07:00:42;;;;;;;35.15;15.00;;;;;;;3.31;100.00;102737.13;4968022;28;20413;-64
2023/03/03 07:03:14;;;;;;;28.70;14.40;;;;;;;3.35;100.00;102740.72;4967675;28;20237;-65
2023/03/03 07:05:39;;;;;;;33.35;15.65;;;;;;;3.49;100.00;102736.75;4964961;28;20479;-65
2023/03/03 07:08:15;;;;;;;37.08;16.17;;;;;;;3.25;100.00;102732.63;4966500;28;20069;-64
2023/03/03 07:10:41;;;;;;;34.63;14.40;;;;;;;3.44;100.00;102740.06;4965358;28;20027;-64
2023/03/03 07:13:15;;;;;;;25.42;13.68;;;;;;;3.52;100.00;102742.03;4967063;28;20418;-65
2023/03/03 07:15:40;;;;;;;28.40;14.13;;;;;;;3.46;100.00;102746.22;4960804;28;20039;-63
2023/03/03 07:18:36;;;;;;;29.98;14.63;;;;;;;3.53;100.00;102750.75;4967522;28;20088;-63
2023/03/03 07:21:17;;;;;;;26.65;13.52;;;;;;;3.50;100.00;102755.88;4961428;28;20042;-61
2023/03/03 07:23:44;;;;;;;29.25;14.30;;;;;;;3.46;100.00;102754.91;4965386;28;20034;-63
2023/03/03 07:26:15;;;;;;;25.45;13.50;;;;;;;3.64;100.00;102756.22;4966864;28;20023;-63
2023/03/03 07:28:42;;;;;;;27.77;13.88;;;;;;;3.77;100.00;102749.63;4962897;28;20023;-64
2023/03/03 07:31:34;;;;;;;31.30;14.68;;;;;;;3.74;100.00;102754.75;4966815;28;20023;-64
2023/03/03 07:34:00;;;;;;;24.30;12.88;;;;;;;3.88;100.00;102762.91;4957480;28;20124;-63
2023/03/03 07:36:36;;;;;;;24.83;13.73;;;;;;;3.92;100.00;102764.78;4964383;28;20030;-63
2023/03/03 07:39:26;;;;;;;24.10;12.48;;;;;;;4.02;100.00;102771.09;4967587;28;20018;-64
2023/03/03 07:41:55;;;;;;;23.52;11.70;;;;;;;3.72;100.00;102777.28;5049188;28;20498;-63
2023/03/03 07:44:29;;;;;;;21.80;12.63;;;;;;;3.93;100.00;102769.13;5048365;28;20082;-65
2023/03/03 07:46:54;;;;;;;23.70;12.07;;;;;;;4.08;100.00;102778.19;5050686;28;20025;-63
2023/03/03 07:49:30;;;;;;;19.48;11.48;;;;;;;4.00;100.00;102772.81;5007821;28;20091;-63
2023/03/03 07:51:57;;;;;;;20.45;11.90;;;;;;;4.01;100.00;102769.34;4963590;28;20106;-64
2023/03/03 07:54:36;;;;;;;22.63;11.63;;;;;;;4.10;100.00;102774.78;4967633;28;20164;-64
2023/03/03 07:57:07;;;;;;;;;;;;;;;4.16;100.00;102779.28;4967622;28;20339;-65
2023/03/03 07:59:34;;;;;;;20.10;11.52;;;;;;;4.23;100.00;102783.78;4966061;28;19914;-63
2023/03/03 08:02:00;;;;;;;21.55;11.35;;;;;;;4.08;100.00;102781.69;4967168;28;20019;-66
2023/03/03 08:04:38;;;;;;;21.23;10.55;;;;;;;4.17;100.00;102789.75;4968469;28;20060;-65
2023/03/03 08:07:19;;;;;;;34.78;10.45;;;;;;;4.53;100.00;102793.19;4967340;28;20070;-61
2023/03/03 08:09:58;;;;;;;24.20;11.50;;;;;;;4.49;100.00;102796.56;4952361;28;20023;-61
2023/03/03 08:12:30;;;;;;;25.38;12.05;;;;;;;4.65;100.00;102799.53;4964824;28;20037;-62
2023/03/03 08:14:58;;;;;;;20.90;11.13;;;;;;;4.91;100.00;102802.72;4968056;28;20041;-63
2023/03/03 08:17:30;;;;;;;21.55;10.95;;;;;;;4.88;100.00;102801.78;4955812;28;20069;-63
2023/03/03 08:19:55;;;;;;;19.10;10.85;;;;;;;5.02;100.00;102802.94;4959319;28;20041;-64
2023/03/03 08:22:29;;;;;;;25.25;9.85;;;;;;;5.15;100.00;102808.44;4965209;28;20026;-64
2023/03/03 08:24:54;;;;;;;18.90;9.02;;;;;;;5.15;100.00;102816.28;4967043;28;20073;-63
2023/03/03 08:27:19;;;;;;;14.48;9.00;;;;;;;5.19;100.00;102818.09;4968495;28;20439;-61
2023/03/03 08:29:45;;;;;;;15.20;8.77;;;;;;;5.28;100.00;102822.63;4969309;28;20027;-61
2023/03/03 08:32:10;;;;;;;16.40;8.70;;;;;;;5.37;100.00;102814.97;4964737;28;20026;-63
2023/03/03 08:34:35;;;;;;;15.73;9.00;;;;;;;5.41;100.00;102821.13;4968251;28;20027;-62
2023/03/03 08:37:01;;;;;;;17.33;9.70;;;;;;;5.43;100.00;102827.28;4965449;28;20097;-63
2023/03/03 08:39:26;;;;;;;16.95;9.88;;;;;;;5.57;100.00;102820.59;4968218;28;20031;-65
2023/03/03 08:41:52;;;;;;;14.85;9.05;;;;;;;5.71;100.00;102822.59;4965326;28;20517;-63
2023/03/03 08:44:19;;;;;;;22.77;10.98;;;;;;;5.72;100.00;102818.25;4956954;28;20068;-66
2023/03/03 08:46:44;;;;;;;20.52;9.95;;;;;;;5.76;100.00;102820.94;4966471;28;20025;-66
2023/03/03 08:49:09;;;;;;;27.40;10.90;;;;;;;5.76;100.00;102820.94;4965547;28;20220;-64
2023/03/03 08:51:35;;;;;;;21.33;9.65;;;;;;;5.90;100.00;102825.56;4966222;28;20121;-63
2023/03/03 08:54:00;;;;;;;17.00;7.93;;;;;;;6.02;100.00;102833.59;4967432;28;20148;-65
2023/03/03 08:56:25;;;;;;;20.38;9.00;;;;;;;6.04;100.00;102829.31;4965522;28;20142;-65
2023/03/03 08:58:51;;;;;;;16.63;8.68;;;;;;;6.03;100.00;102824.91;4965724;28;20027;-64
2023/03/03 09:01:16;;;;;;;16.88;8.68;;;;;;;5.89;100.00;102827.28;4966418;28;20047;-63
2023/03/03 09:03:42;;;;;;;15.63;8.02;;;;;;;5.96;100.00;102825.63;4968116;28;20374;-60
2023/03/03 09:06:08;;;;;;;15.15;7.90;;;;;;;6.03;100.00;102824.91;4967309;28;20092;-64
2023/03/03 09:08:33;;;;;;;12.18;8.00;;;;;;;6.23;100.00;102831.38;4968617;28;20022;-62
2023/03/03 09:10:59;;;;;;;14.07;7.68;;;;;;;6.19;100.00;102827.81;4968594;28;20509;-61
2023/03/03 09:13:26;;;;;;;17.35;8.07;;;;;;;6.31;100.00;102829.75;4968211;28;20030;-63
2023/03/03 09:15:51;;;;;;;13.80;6.82;;;;;;;6.70;100.00;102827.72;4965426;28;20054;-62
2023/03/03 09:18:35;;;;;;;11.20;6.53;;;;;;;6.82;100.00;102829.63;4965593;28;20025;-62
2023/03/03 09:21:01;;;;;;;13.57;8.73;;;;;;;6.68;100.00;102827.69;4964345;28;20403;-62
2023/03/03 09:23:40;;;;;;;11.20;7.05;;;;;;;6.59;100.00;102832.78;4964991;28;20045;-63
2023/03/03 09:26:29;;;;;;;11.10;6.93;;;;;;;6.91;100.00;102835.00;4956879;28;20092;-64
2023/03/03 09:29:13;;;;;;;9.68;6.35;;;;;;;7.07;100.00;102833.47;4963679;28;20242;-62
2023/03/03 09:31:41;;;;;;;11.15;6.60;;;;;;;6.92;100.00;102828.00;4968943;28;20050;-63
2023/03/03 09:34:20;;;;;;;11.63;6.93;;;;;;;7.02;100.00;102824.66;4969064;28;20447;-62
2023/03/03 09:36:45;;;;;;;14.82;7.25;;;;;;;7.40;100.00;102830.34;4968468;28;20274;-66
2023/03/03 09:39:29;;;;;;;15.18;5.95;;;;;;;7.52;100.00;102827.84;4969176;28;20125;-65
2023/03/03 09:42:19;;;;;;;10.25;6.35;;;;;;;7.55;100.00;102825.28;4966944;28;20043;-68
2023/03/03 09:44:54;;;;;;;13.32;6.28;;;;;;;7.70;100.00;102821.03;4964155;28;20019;-65
2023/03/03 09:47:38;;;;;;;12.65;6.15;;;;;;;7.64;100.00;102827.13;4964263;28;20371;-77
2023/03/03 09:50:15;;;;;;;12.07;5.50;;;;;;;7.48;100.00;102826.06;4965501;28;20019;-70
2023/03/03 09:52:46;;;;;;;7.32;5.25;;;;;;;7.53;100.00;102826.13;4964872;28;20035;-72
2023/03/03 09:55:40;;;;;;;11.73;5.10;;;;;;;7.86;100.00;102829.09;4967456;28;20022;-70
2023/03/03 09:58:27;;;;;;;8.77;4.90;;;;;;;7.80;100.00;102833.38;4959268;28;20092;-64
2023/03/03 10:01:19;;;;;;;12.77;5.10;;;;;;;7.81;100.00;102829.94;4966776;28;20042;-65
2023/03/03 10:03:59;;;;;;;7.13;4.30;;;;;;;7.91;100.00;102835.25;4965180;28;20049;-72
2023/03/03 10:06:31;;;;;;;5.30;3.92;;;;;;;8.03;100.00;102835.38;4962826;28;20573;-70
2023/03/03 10:09:09;;;;;;;7.43;4.50;;;;;;;8.06;100.00;102831.88;4964576;28;20395;-64
2023/03/03 10:11:57;;;;;;;10.27;3.90;;;;;;;8.04;100.00;102831.84;4964221;28;20127;-63
2023/03/03 10:14:29;;;;;;;7.78;4.28;;;;;;;8.21;100.00;102831.13;4949265;28;20047;-63
2023/03/03 10:16:55;;;;;;;10.00;3.90;;;;;;;8.20;100.00;102834.63;4965734;28;20019;-59
2023/03/03 10:19:20;;;;;;;9.23;4.40;;;;;;;7.94;100.00;102837.91;4963150;28;20491;-59
2023/03/03 10:22:19;;;;;;;5.43;4.00;;;;;;;8.20;100.00;102830.28;4963143;28;20050;-68
2023/03/03 10:24:48;;;;;;;10.70;3.83;;;;;;;7.95;100.00;102832.66;4943703;28;20319;-69
2023/03/03 10:27:19;;;;;;;8.73;3.73;;;;;;;8.06;100.00;102832.75;4962061;28;20035;-64
2023/03/03 10:29:58;;;;;;;8.05;3.63;;;;;;;7.58;100.00;102824.41;4962742;28;20039;-68
2023/03/03 10:32:44;;;;;;;13.75;3.10;;;;;;;7.43;100.00;102830.38;4965335;28;20026;-66
2023/03/03 10:35:38;;;;;;;7.85;2.80;;;;;;;7.15;100.00;102827.44;4960994;28;20114;-63
2023/03/03 10:38:09;;;;;;;6.93;3.60;;;;;;;7.49;100.00;102827.81;4955917;28;20040;-61
2023/03/03 10:40:43;;;;;;;7.50;2.83;;;;;;;7.08;100.00;102827.34;4966812;28;20080;-63
2023/03/03 10:43:23;;;;;;;4.53;3.03;;;;;;;7.45;100.00;102840.03;4967417;28;20031;-63
2023/03/03 10:46:26;;;;;;;10.00;3.00;;;;;;;7.69;100.00;102833.31;4969459;28;20027;-64
2023/03/03 10:49:00;;;;;;;6.50;2.75;;;;;;;7.82;100.00;102830.78;4968350;28;20368;-66
2023/03/03 10:52:02;;;;;;;7.90;2.45;;;;;;;8.26;100.00;102824.19;4966578;28;20031;-66
2023/03/03 10:54:38;;;;;;;4.88;2.00;;;;;;;8.32;100.00;102828.59;4969310;28;20449;-65
2023/03/03 10:57:36;;;;;;;3.65;2.40;;;;;;;8.34;100.00;102833.00;4968855;28;20066;-65
2023/03/03 11:00:24;;;;;;;10.07;2.78;;;;;;;8.46;100.00;102836.59;4968052;28;20043;-62
2023/03/03 11:03:24;;;;;;;6.07;1.80;;;;;;;8.79;100.00;102834.22;4974462;28;20051;-67
2023/03/03 11:05:55;;;;;;;2.45;1.80;;;;;;;8.91;100.00;102834.25;4967357;28;20418;-63
2023/03/03 11:08:27;;;;;;;3.28;1.60;;;;;;;8.87;100.00;102832.47;4966061;28;20563;-66
2023/03/03 11:11:02;;;;;;;10.70;1.90;;;;;;;8.82;98.86;102829.81;4970083;28;20284;-64
2023/03/03 11:13:46;;;;;;;8.25;2.22;;;;;;;8.20;100.00;102829.38;4968751;28;20054;-64
2023/03/03 11:16:49;;;;;;;4.32;1.67;;;;;;;8.32;100.00;102824.22;4968821;28;20050;-62
2023/03/03 11:19:26;;;;;;;8.10;1.90;;;;;;;8.56;100.00;102827.94;4949873;28;20399;-62
2023/03/03 11:21:58;;;;;;;3.22;1.70;;;;;;;8.20;100.00;102824.13;4967678;28;20057;-62
2023/03/03 11:24:36;;;;;;;3.67;1.42;;;;;;;8.23;100.00;102818.91;4967161;28;20045;-60
2023/03/03 11:27:11;;;;;;;5.65;1.65;;;;;;;8.66;98.84;102820.09;4967711;28;20088;-67